Página principal
METAR-TAF:

METAR-TAF

Aeroportos :

Aeroporto Internacional de Bagdad

Bagdá, Iraque

latitude: 33-15-45N, longitude: 44-14-04E, altura: 35 m

Observação actual do tempo

O boletim foi feito há 35 minutos, às 00:00 UTC
Vento 14 kt de oes-sudoeste
Temperatura 12°C
Humidade 54%
Pressão 1008 hPa
Visibilidade 10 km ou mais
sem nuvens abaixo de 1500 metros e sem cumulonimbus

METAR: ORBI 220000Z 24014KT CAVOK 12/03 Q1008 NOSIG

Hora: 03:35 (00:35 UTC)

Previsão

O boletim foi feito há 1 hora e 35 minutos, às 23:00 UTC
Previsão válida de 22 às 00 UTC a 22 às 24 UTC
Vento 16 kt de oeste
Visibilidade: 8000 m
Nuvens fragmentadasa uma altura de 3000 ft
Tornando-se
de 22 às 06 UTC a 22 às 08 UTC
Visibilidade 10 km ou mais
sem nuvens abaixo de 1500 metros e sem cumulonimbus

TAF: ORBI 212300Z 2200/2224 28016KT 8000 BKN030 BECMG 2206/2208 CAVOK

Observações e previsões do tempo de mais de 4000 aeroportos (mensagens METAR e TAF).

As estações disponíveis são os pontos amarelos e vermelhos sobre o mapa.

Mova o rato sobre o mapa para ver o nome da estação.

Depois clique no ponto para visualizar as observações e previsões meteorológicas.

Para alterar o mapa : clique nos botões verdes com uma cruz preta para aumentar o zoom; no botão verde com uma pitada de zoom; ou nas setas verdes para mapas adjacentes.


METAR-TAF: